createdAt,value
2022-12-19T00:01:16.290Z,45.80
2022-12-19T00:03:46.731Z,45.07
2022-12-19T00:06:13.695Z,51.13
2022-12-19T00:08:44.379Z,58.45
2022-12-19T00:11:11.493Z,53.47
2022-12-19T00:13:41.117Z,61.08
2022-12-19T00:16:10.521Z,54.25
2022-12-19T00:18:38.841Z,64.53
2022-12-19T00:21:05.305Z,69.60
2022-12-19T00:23:33.005Z,81.55
2022-12-19T00:26:18.112Z,62.40
2022-12-19T00:28:47.428Z,56.78
2022-12-19T00:31:14.580Z,80.70
2022-12-19T00:33:43.395Z,68.30
2022-12-19T00:36:13.322Z,61.20
2022-12-19T00:38:44.889Z,65.40
2022-12-19T00:41:16.307Z,70.93
2022-12-19T00:43:43.982Z,59.95
2022-12-19T00:46:11.590Z,72.35
2022-12-19T00:48:38.025Z,67.38
2022-12-19T00:51:06.727Z,76.07
2022-12-19T00:53:34.479Z,65.88
2022-12-19T00:56:01.914Z,55.25
2022-12-19T00:58:28.678Z,58.17
2022-12-19T01:00:55.107Z,71.15
2022-12-19T01:03:21.630Z,51.63
2022-12-19T01:05:48.013Z,66.45
2022-12-19T01:08:18.114Z,60.00
2022-12-19T01:10:46.682Z,49.53
2022-12-19T01:13:13.896Z,63.80
2022-12-19T01:15:43.805Z,58.92
2022-12-19T01:18:10.460Z,40.22
2022-12-19T01:20:40.640Z,54.28
2022-12-19T01:23:07.994Z,62.13
2022-12-19T01:25:35.119Z,54.85
2022-12-19T01:28:04.184Z,56.65
2022-12-19T01:30:31.945Z,54.78
2022-12-19T01:32:58.804Z,57.45
2022-12-19T01:35:27.319Z,44.38
2022-12-19T01:38:05.507Z,47.30
2022-12-19T01:40:35.209Z,60.92
2022-12-19T01:43:02.033Z,45.13
2022-12-19T01:45:34.536Z,74.63
2022-12-19T01:48:11.432Z,66.55
2022-12-19T01:50:41.439Z,64.60
2022-12-19T01:53:27.200Z,71.63
2022-12-19T01:55:54.195Z,54.85
2022-12-19T01:58:20.616Z,62.45
2022-12-19T02:00:47.103Z,83.88
2022-12-19T02:03:23.517Z,77.30
2022-12-19T02:05:50.834Z,63.28
2022-12-19T02:08:18.481Z,79.55
2022-12-19T02:10:45.263Z,60.72
2022-12-19T02:13:14.604Z,96.03
2022-12-19T02:15:46.891Z,83.25
2022-12-19T02:18:16.434Z,75.35
2022-12-19T02:21:01.563Z,81.97
2022-12-19T02:23:46.922Z,83.68
2022-12-19T02:26:29.837Z,86.82
2022-12-19T02:29:01.665Z,67.32
2022-12-19T02:31:30.771Z,98.47
2022-12-19T02:34:01.478Z,76.45
2022-12-19T02:36:32.882Z,82.40
2022-12-19T02:39:11.569Z,79.35
2022-12-19T02:41:43.291Z,60.22
2022-12-19T02:44:19.156Z,80.60
2022-12-19T02:46:46.189Z,90.78
2022-12-19T02:49:14.054Z,78.70
2022-12-19T02:51:47.114Z,76.72
2022-12-19T02:54:13.510Z,65.10
2022-12-19T02:56:48.855Z,61.17
2022-12-19T02:59:33.854Z,88.70
2022-12-19T03:02:16.134Z,77.68
2022-12-19T03:04:55.633Z,71.40
2022-12-19T03:07:33.628Z,59.05
2022-12-19T03:10:15.419Z,71.00
2022-12-19T03:12:47.667Z,67.00
2022-12-19T03:15:15.011Z,50.38
2022-12-19T03:17:41.683Z,54.67
2022-12-19T03:20:09.316Z,67.15
2022-12-19T03:22:35.711Z,52.13
2022-12-19T03:25:02.183Z,56.85
2022-12-19T03:27:32.670Z,74.53
2022-12-19T03:30:04.933Z,78.90
2022-12-19T03:32:32.497Z,52.13
2022-12-19T03:35:01.485Z,59.55
2022-12-19T03:37:30.792Z,63.88
2022-12-19T03:40:03.072Z,78.35
2022-12-19T03:42:49.474Z,62.83
2022-12-19T03:45:21.364Z,46.63
2022-12-19T03:47:50.482Z,72.37
2022-12-19T03:50:17.831Z,75.40
2022-12-19T03:52:50.770Z,68.05
2022-12-19T03:55:19.329Z,71.18
2022-12-19T03:58:05.964Z,70.22
2022-12-19T04:00:34.722Z,69.60
2022-12-19T04:03:01.748Z,67.10
2022-12-19T04:05:29.008Z,49.17
2022-12-19T04:07:58.304Z,54.60
2022-12-19T04:10:26.083Z,53.58
2022-12-19T04:12:54.300Z,64.50
2022-12-19T04:15:23.677Z,58.38
2022-12-19T04:17:57.769Z,63.10
2022-12-19T04:20:28.141Z,46.47
2022-12-19T04:22:58.164Z,51.88
2022-12-19T04:25:29.503Z,47.38
2022-12-19T04:27:58.723Z,40.97
2022-12-19T04:30:25.771Z,52.42
2022-12-19T04:32:52.321Z,47.47
2022-12-19T04:35:18.698Z,62.45
2022-12-19T04:37:45.092Z,52.10
2022-12-19T04:40:11.815Z,44.80
2022-12-19T04:42:38.216Z,35.65
2022-12-19T04:45:05.081Z,59.22
2022-12-19T04:47:31.872Z,61.17
2022-12-19T04:49:58.168Z,35.78
2022-12-19T04:52:24.666Z,69.18
2022-12-19T04:54:50.992Z,62.90
2022-12-19T04:57:17.339Z,58.65
2022-12-19T04:59:43.639Z,49.75
2022-12-19T05:02:10.076Z,36.03
2022-12-19T05:04:36.501Z,53.13
2022-12-19T05:07:02.794Z,38.35
2022-12-19T05:09:29.169Z,53.28
2022-12-19T05:11:55.477Z,49.67
2022-12-19T05:14:21.824Z,46.88
2022-12-19T05:16:48.223Z,59.08
2022-12-19T05:19:15.975Z,54.33
2022-12-19T05:21:42.379Z,60.80
2022-12-19T05:24:08.805Z,55.25
2022-12-19T05:26:35.111Z,58.63
2022-12-19T05:29:01.478Z,34.10
2022-12-19T05:31:27.876Z,61.60
2022-12-19T05:33:54.512Z,38.63
2022-12-19T05:36:21.022Z,42.97
2022-12-19T05:38:47.378Z,50.50
2022-12-19T05:41:17.718Z,48.13
2022-12-19T05:43:45.142Z,38.08
2022-12-19T05:46:11.957Z,49.28
2022-12-19T05:48:39.033Z,46.25
2022-12-19T05:51:05.559Z,54.08
2022-12-19T05:53:32.156Z,40.25
2022-12-19T05:56:12.219Z,57.17
2022-12-19T05:58:39.020Z,57.72
2022-12-19T06:01:10.096Z,63.63
2022-12-19T06:03:36.779Z,51.28
2022-12-19T06:06:04.090Z,50.10
2022-12-19T06:08:30.866Z,59.78
2022-12-19T06:11:00.429Z,41.80
2022-12-19T06:13:29.707Z,51.90
2022-12-19T06:16:03.641Z,49.58
2022-12-19T06:18:30.534Z,55.55
2022-12-19T06:20:57.798Z,34.97
2022-12-19T06:23:24.466Z,39.10
2022-12-19T06:25:50.854Z,55.45
2022-12-19T06:28:17.170Z,47.30
2022-12-19T06:30:43.502Z,38.40
2022-12-19T06:33:09.953Z,39.28
2022-12-19T06:35:37.056Z,52.10
2022-12-19T06:38:03.345Z,34.65
2022-12-19T06:40:48.099Z,30.27
2022-12-19T06:43:14.446Z,44.72
2022-12-19T06:45:40.874Z,42.22
2022-12-19T06:48:07.270Z,41.72
2022-12-19T06:50:35.757Z,41.28
2022-12-19T06:53:07.891Z,45.13
2022-12-19T06:55:35.785Z,32.75
2022-12-19T06:58:02.135Z,37.53
2022-12-19T07:00:28.496Z,41.05
2022-12-19T07:02:55.496Z,32.15
2022-12-19T07:05:22.113Z,35.10
2022-12-19T07:07:48.488Z,30.27
2022-12-19T07:10:15.562Z,28.00
2022-12-19T07:12:41.963Z,38.05
2022-12-19T07:15:08.903Z,34.78
2022-12-19T07:17:38.022Z,30.70
2022-12-19T07:20:04.602Z,40.13
2022-12-19T07:22:31.934Z,32.80
2022-12-19T07:24:58.890Z,38.22
2022-12-19T07:27:28.554Z,31.25
2022-12-19T07:30:00.243Z,35.28
2022-12-19T07:32:26.530Z,30.58
2022-12-19T07:34:55.582Z,33.78
2022-12-19T07:37:21.881Z,34.70
2022-12-19T07:39:48.843Z,27.08
2022-12-19T07:42:15.230Z,33.95
2022-12-19T07:44:41.582Z,30.27
2022-12-19T07:47:10.613Z,25.02
2022-12-19T07:49:37.046Z,30.55
2022-12-19T07:52:03.353Z,24.40
2022-12-19T07:54:29.855Z,26.70
2022-12-19T07:56:56.393Z,29.13
2022-12-19T07:59:28.914Z,26.00
2022-12-19T08:01:56.963Z,30.52
2022-12-19T08:04:23.635Z,33.38
2022-12-19T08:06:50.042Z,27.17
2022-12-19T08:09:16.360Z,25.25
2022-12-19T08:11:42.679Z,25.92
2022-12-19T08:14:09.030Z,27.13
2022-12-19T08:16:55.746Z,26.45
2022-12-19T08:19:27.275Z,20.38
2022-12-19T08:21:54.101Z,24.70
2022-12-19T08:24:20.489Z,23.23
2022-12-19T08:26:47.823Z,21.08
2022-12-19T08:29:14.348Z,23.13
2022-12-19T08:31:40.765Z,25.77
2022-12-19T08:34:07.161Z,28.20
2022-12-19T08:36:33.894Z,23.50
2022-12-19T08:39:00.210Z,22.15
2022-12-19T08:41:26.647Z,24.73
2022-12-19T08:43:53.829Z,26.75
2022-12-19T08:46:20.468Z,20.75
2022-12-19T08:48:46.982Z,20.08
2022-12-19T08:51:13.863Z,25.52
2022-12-19T08:53:41.211Z,16.90
2022-12-19T08:56:13.408Z,20.45
2022-12-19T08:58:40.149Z,25.08
2022-12-19T09:01:09.024Z,21.40
2022-12-19T09:03:48.316Z,23.67
2022-12-19T09:06:22.226Z,24.42
2022-12-19T09:08:49.859Z,26.27
2022-12-19T09:11:17.365Z,23.80
2022-12-19T09:13:44.059Z,18.23
2022-12-19T09:16:10.469Z,18.98
2022-12-19T09:18:36.808Z,22.60
2022-12-19T09:21:03.523Z,21.17
2022-12-19T09:23:34.501Z,21.40
2022-12-19T09:26:05.709Z,18.77
2022-12-19T09:28:32.092Z,15.93
2022-12-19T09:30:59.632Z,16.75
2022-12-19T09:33:26.603Z,17.67
2022-12-19T09:35:54.476Z,18.38
2022-12-19T09:38:25.282Z,21.92
2022-12-19T09:40:57.664Z,12.60
2022-12-19T09:43:42.802Z,21.70
2022-12-19T09:46:15.317Z,18.58
2022-12-19T09:48:41.908Z,15.20
2022-12-19T09:51:16.804Z,18.80
2022-12-19T09:53:56.850Z,16.05
2022-12-19T09:56:26.688Z,13.35
2022-12-19T09:58:55.918Z,14.63
2022-12-19T10:01:25.629Z,14.10
2022-12-19T10:04:00.699Z,17.95
2022-12-19T10:07:11.271Z,19.17
2022-12-19T10:10:45.412Z,15.43
2022-12-19T10:12:44.384Z,14.50
2022-12-19T10:14:56.550Z,15.52
2022-12-19T10:17:34.869Z,14.45
2022-12-19T10:20:20.460Z,12.73
2022-12-19T10:22:52.836Z,18.10
2022-12-19T10:25:25.022Z,13.52
2022-12-19T10:28:00.458Z,16.15
2022-12-19T10:30:31.388Z,15.93
2022-12-19T10:33:19.371Z,13.48
2022-12-19T10:35:52.719Z,16.70
2022-12-19T10:38:26.700Z,16.10
2022-12-19T10:40:55.334Z,12.77
2022-12-19T10:43:53.919Z,10.45
2022-12-19T10:46:39.691Z,12.98
2022-12-19T10:49:19.075Z,9.40
2022-12-19T10:52:02.834Z,13.88
2022-12-19T10:54:41.718Z,9.75
2022-12-19T10:57:23.396Z,12.30
2022-12-19T11:00:04.728Z,14.13
2022-12-19T11:02:34.042Z,15.82
2022-12-19T11:05:01.165Z,11.55
2022-12-19T11:07:27.622Z,9.13
2022-12-19T11:10:41.276Z,9.00
2022-12-19T11:17:01.088Z,11.95
2022-12-19T11:19:56.601Z,13.18
2022-12-19T11:29:17.226Z,10.57
2022-12-19T11:29:35.141Z,10.40
2022-12-19T11:29:44.965Z,8.38
2022-12-19T11:30:36.056Z,8.45
2022-12-19T11:33:08.352Z,11.60
2022-12-19T11:35:44.760Z,11.55
2022-12-19T11:38:13.508Z,13.82
2022-12-19T11:40:48.683Z,8.35
2022-12-19T11:43:45.401Z,10.38
2022-12-19T11:46:25.207Z,9.00
2022-12-19T11:49:10.265Z,8.20
2022-12-19T11:51:43.281Z,11.77
2022-12-19T11:54:33.077Z,9.48
2022-12-19T11:56:59.608Z,10.98
2022-12-19T11:59:34.408Z,9.98
2022-12-19T12:02:00.838Z,9.38
2022-12-19T12:04:38.113Z,9.07
2022-12-19T12:07:20.470Z,9.25
2022-12-19T12:15:04.363Z,9.15
2022-12-19T12:16:57.710Z,9.88
2022-12-19T12:29:43.034Z,8.32
2022-12-19T12:31:09.513Z,7.60
2022-12-19T12:31:10.966Z,7.45
2022-12-19T12:31:58.473Z,7.80
2022-12-19T12:32:02.755Z,11.90
2022-12-19T12:32:06.525Z,7.57
2022-12-19T12:35:35.105Z,8.50
2022-12-19T12:38:26.410Z,12.43
2022-12-19T12:40:53.716Z,6.60
2022-12-19T12:43:25.993Z,7.00
2022-12-19T12:45:52.331Z,6.80
2022-12-19T12:48:22.502Z,8.10
2022-12-19T12:50:55.032Z,6.32
2022-12-19T12:53:25.149Z,11.23
2022-12-19T12:55:52.144Z,8.15
2022-12-19T12:58:37.042Z,7.70
2022-12-19T13:01:11.192Z,6.03
2022-12-19T13:03:40.229Z,9.10
2022-12-19T13:06:18.214Z,6.28
2022-12-19T13:08:48.612Z,6.57
2022-12-19T13:11:37.662Z,6.00
2022-12-19T13:14:05.250Z,5.63
2022-12-19T13:16:43.630Z,5.80
2022-12-19T13:19:27.945Z,6.30
2022-12-19T13:22:04.072Z,5.43
2022-12-19T13:24:45.517Z,9.55
2022-12-19T13:27:20.759Z,6.57
2022-12-19T13:30:10.408Z,4.93
2022-12-19T13:32:39.833Z,7.78
2022-12-19T13:35:31.163Z,6.32
2022-12-19T13:40:00.881Z,5.38
2022-12-19T13:40:58.243Z,5.88
2022-12-19T13:43:45.677Z,6.95
2022-12-19T13:46:37.991Z,4.95
2022-12-19T13:49:17.586Z,6.33
2022-12-19T13:51:48.759Z,6.18
2022-12-19T13:54:22.893Z,5.72
2022-12-19T13:56:50.223Z,5.07
2022-12-19T13:59:16.868Z,4.93
2022-12-19T14:01:43.382Z,4.53
2022-12-19T14:04:16.285Z,6.65
2022-12-19T14:06:47.103Z,5.70
2022-12-19T14:11:27.322Z,5.25
2022-12-19T14:13:57.267Z,6.47
2022-12-19T14:15:35.696Z,4.68
2022-12-19T14:18:43.011Z,12.95
2022-12-19T14:22:08.640Z,7.43
2022-12-19T14:24:18.772Z,8.93
2022-12-19T14:28:18.228Z,5.65
2022-12-19T14:30:26.577Z,5.22
2022-12-19T14:33:46.562Z,7.82
2022-12-19T14:36:06.540Z,5.40
2022-12-19T14:39:25.775Z,12.95
2022-12-19T14:41:08.360Z,4.82
2022-12-19T14:43:59.638Z,9.10
2022-12-19T14:53:10.869Z,5.07
2022-12-19T14:54:14.085Z,4.30
2022-12-19T14:54:20.957Z,11.30
2022-12-19T14:56:04.140Z,6.05
2022-12-19T14:58:54.154Z,5.03
2022-12-19T15:01:09.020Z,5.13
2022-12-19T15:03:42.032Z,6.45
2022-12-19T15:07:05.365Z,4.60
2022-12-19T15:11:02.451Z,4.50
2022-12-19T15:14:20.279Z,7.60
2022-12-19T15:15:18.275Z,5.55
2022-12-19T15:17:45.759Z,5.95
2022-12-19T15:20:12.108Z,4.38
2022-12-19T15:22:38.555Z,3.78
2022-12-19T15:25:05.139Z,4.32
2022-12-19T15:27:31.877Z,4.65
2022-12-19T15:29:58.480Z,5.90
2022-12-19T15:32:24.909Z,4.25
2022-12-19T15:34:51.912Z,3.97
2022-12-19T15:37:18.509Z,8.65
2022-12-19T15:39:44.961Z,6.60
2022-12-19T15:42:17.311Z,8.20
2022-12-19T15:44:44.459Z,6.43
2022-12-19T15:47:18.563Z,3.70
2022-12-19T15:49:45.402Z,4.13
2022-12-19T15:52:15.260Z,15.15
2022-12-19T15:54:50.658Z,9.38
2022-12-19T15:57:19.967Z,4.18
2022-12-19T15:59:46.519Z,7.60
2022-12-19T16:02:15.906Z,4.05
2022-12-19T16:04:42.783Z,12.60
2022-12-19T16:07:14.735Z,10.35
2022-12-19T16:09:41.048Z,6.57
2022-12-19T16:12:10.515Z,8.43
2022-12-19T16:14:37.181Z,5.78
2022-12-19T16:17:03.623Z,5.18
2022-12-19T16:19:30.637Z,5.70
2022-12-19T16:21:57.985Z,7.70
2022-12-19T16:24:24.540Z,11.25
2022-12-19T16:26:53.053Z,5.45
2022-12-19T16:29:20.851Z,6.45
2022-12-19T16:31:47.284Z,5.72
2022-12-19T16:34:17.891Z,7.30
2022-12-19T16:36:44.948Z,5.63
2022-12-19T16:39:11.477Z,5.28
2022-12-19T16:41:41.646Z,9.13
2022-12-19T16:44:20.460Z,6.97
2022-12-19T16:46:50.965Z,9.18
2022-12-19T16:49:24.619Z,7.45
2022-12-19T16:51:51.251Z,10.05
2022-12-19T16:54:18.120Z,6.55
2022-12-19T16:56:48.700Z,6.75
2022-12-19T16:59:17.787Z,6.30
2022-12-19T17:01:45.384Z,5.88
2022-12-19T17:04:12.774Z,5.18
2022-12-19T17:06:39.170Z,6.47
2022-12-19T17:09:05.599Z,6.88
2022-12-19T17:11:32.083Z,6.72
2022-12-19T17:14:04.320Z,5.90
2022-12-19T17:16:31.217Z,4.35
2022-12-19T17:18:57.913Z,7.32
2022-12-19T17:21:24.435Z,4.47
2022-12-19T17:23:51.278Z,6.50
2022-12-19T17:26:18.451Z,6.35
2022-12-19T17:28:47.890Z,6.75
2022-12-19T17:31:22.961Z,5.68
2022-12-19T17:33:49.734Z,8.50
2022-12-19T17:36:19.934Z,11.48
2022-12-19T17:38:51.147Z,7.57
2022-12-19T17:41:17.555Z,8.57
2022-12-19T17:43:44.014Z,4.97
2022-12-19T17:46:16.333Z,5.03
2022-12-19T17:48:43.512Z,5.80
2022-12-19T17:51:11.257Z,9.73
2022-12-19T17:53:37.754Z,4.70
2022-12-19T17:56:04.265Z,4.57
2022-12-19T17:58:30.681Z,7.30
2022-12-19T18:00:57.096Z,6.25
2022-12-19T18:03:24.766Z,14.85
2022-12-19T18:05:52.083Z,5.72
2022-12-19T18:08:21.504Z,5.75
2022-12-19T18:10:47.943Z,5.40
2022-12-19T18:13:14.254Z,6.40
2022-12-19T18:15:40.866Z,5.38
2022-12-19T18:18:12.313Z,6.03
2022-12-19T18:20:38.645Z,7.43
2022-12-19T18:23:15.311Z,7.50
2022-12-19T18:25:41.675Z,5.82
2022-12-19T18:28:08.056Z,5.03
2022-12-19T18:30:35.520Z,7.13
2022-12-19T18:33:02.505Z,5.32
2022-12-19T18:35:36.676Z,4.75
2022-12-19T18:38:11.724Z,4.93
2022-12-19T18:40:38.123Z,7.57
2022-12-19T18:43:05.069Z,5.00
2022-12-19T18:45:38.567Z,6.93
2022-12-19T18:48:11.980Z,6.70
2022-12-19T18:50:38.439Z,4.50
2022-12-19T18:53:11.686Z,4.80
2022-12-19T18:55:38.060Z,8.27
2022-12-19T18:58:04.459Z,6.78
2022-12-19T19:00:30.993Z,9.48
2022-12-19T19:03:02.271Z,4.60
2022-12-19T19:05:30.125Z,6.13
2022-12-19T19:07:57.899Z,6.60
2022-12-19T19:10:26.145Z,6.22
2022-12-19T19:13:10.320Z,4.45
2022-12-19T19:15:40.108Z,4.30
2022-12-19T19:18:08.680Z,9.27
2022-12-19T19:20:36.376Z,4.20
2022-12-19T19:23:03.690Z,4.28
2022-12-19T19:25:30.084Z,4.00
2022-12-19T19:27:56.482Z,3.55
2022-12-19T19:30:22.830Z,9.98
2022-12-19T19:32:53.057Z,4.97
2022-12-19T19:35:19.849Z,5.43
2022-12-19T19:37:46.719Z,8.48
2022-12-19T19:40:13.654Z,6.90
2022-12-19T19:42:39.987Z,8.88
2022-12-19T19:45:06.763Z,4.70
2022-12-19T19:47:36.056Z,5.53
2022-12-19T19:50:02.859Z,3.85
2022-12-19T19:52:29.171Z,5.13
2022-12-19T19:54:55.564Z,5.88
2022-12-19T19:57:21.888Z,8.55
2022-12-19T19:59:48.215Z,4.78
2022-12-19T20:02:16.810Z,3.75
2022-12-19T20:04:43.428Z,5.72
2022-12-19T20:07:09.852Z,6.45
2022-12-19T20:09:36.249Z,6.22
2022-12-19T20:12:02.616Z,6.97
2022-12-19T20:14:29.071Z,5.20
2022-12-19T20:16:55.708Z,7.07
2022-12-19T20:19:22.059Z,7.93
2022-12-19T20:21:48.431Z,9.60
2022-12-19T20:24:15.182Z,6.22
2022-12-19T20:26:41.543Z,4.63
2022-12-19T20:29:08.429Z,4.72
2022-12-19T20:31:34.850Z,5.93
2022-12-19T20:34:01.274Z,4.90
2022-12-19T20:36:27.849Z,4.95
2022-12-19T20:38:56.514Z,4.82
2022-12-19T20:41:23.122Z,3.88
2022-12-19T20:43:49.653Z,6.15
2022-12-19T20:46:17.562Z,8.07
2022-12-19T20:48:44.979Z,6.05
2022-12-19T20:51:12.063Z,4.85
2022-12-19T20:53:38.810Z,4.47
2022-12-19T20:56:06.081Z,6.47
2022-12-19T20:58:33.891Z,6.35
2022-12-19T21:01:05.470Z,6.53
2022-12-19T21:03:32.213Z,4.55
2022-12-19T21:05:58.653Z,6.93
2022-12-19T21:08:25.557Z,5.00
2022-12-19T21:10:52.038Z,7.95
2022-12-19T21:13:18.931Z,5.40
2022-12-19T21:15:45.363Z,5.03
2022-12-19T21:18:11.801Z,5.82
2022-12-19T21:20:38.492Z,4.78
2022-12-19T21:23:05.095Z,4.47
2022-12-19T21:25:31.447Z,6.07
2022-12-19T21:27:58.237Z,7.32
2022-12-19T21:30:25.030Z,4.53
2022-12-19T21:32:51.392Z,4.70
2022-12-19T21:35:17.793Z,5.00
2022-12-19T21:37:49.884Z,6.38
2022-12-19T21:40:16.395Z,5.22
2022-12-19T21:42:42.882Z,6.28
2022-12-19T21:45:09.671Z,4.78
2022-12-19T21:47:39.220Z,8.50
2022-12-19T21:50:13.030Z,5.88
2022-12-19T21:52:39.734Z,6.63
2022-12-19T21:55:07.192Z,7.53
2022-12-19T21:57:33.508Z,5.10
2022-12-19T21:59:59.825Z,4.88
2022-12-19T22:02:26.314Z,5.88
2022-12-19T22:04:52.731Z,7.97
2022-12-19T22:07:19.152Z,7.05
2022-12-19T22:09:45.609Z,4.78
2022-12-19T22:12:12.407Z,4.85
2022-12-19T22:14:38.722Z,7.97
2022-12-19T22:17:05.630Z,4.78
2022-12-19T22:19:31.977Z,3.65
2022-12-19T22:21:58.362Z,4.25
2022-12-19T22:24:24.798Z,5.20
2022-12-19T22:26:51.113Z,4.82
2022-12-19T22:29:17.588Z,3.88
2022-12-19T22:31:44.448Z,5.07
2022-12-19T22:34:12.391Z,3.65
2022-12-19T22:36:39.537Z,6.40
2022-12-19T22:39:07.062Z,3.55
2022-12-19T22:41:34.060Z,4.25
2022-12-19T22:44:00.589Z,3.78
2022-12-19T22:46:28.447Z,3.90
2022-12-19T22:48:56.301Z,3.92
2022-12-19T22:51:22.679Z,4.68
2022-12-19T22:53:49.082Z,6.00
2022-12-19T22:56:20.128Z,5.65
2022-12-19T22:58:47.896Z,4.32
2022-12-19T23:01:14.721Z,3.90
2022-12-19T23:03:41.937Z,5.55
2022-12-19T23:06:08.456Z,7.40
2022-12-19T23:08:35.572Z,7.93
2022-12-19T23:11:02.084Z,5.40
2022-12-19T23:13:28.455Z,3.63
2022-12-19T23:15:56.019Z,3.72
2022-12-19T23:18:22.448Z,7.72
2022-12-19T23:20:48.949Z,4.97
2022-12-19T23:23:15.682Z,7.55
2022-12-19T23:25:42.116Z,7.13
2022-12-19T23:28:09.192Z,11.70
2022-12-19T23:30:36.012Z,7.95
2022-12-19T23:33:02.566Z,4.00
2022-12-19T23:35:29.536Z,4.10
2022-12-19T23:37:55.835Z,5.55
2022-12-19T23:40:22.167Z,6.15
2022-12-19T23:42:48.539Z,7.72
2022-12-19T23:45:14.867Z,4.35
2022-12-19T23:47:41.239Z,3.75
2022-12-19T23:50:07.978Z,4.25
2022-12-19T23:52:34.342Z,4.78
2022-12-19T23:55:00.705Z,6.20
2022-12-19T23:57:27.019Z,3.65
2022-12-19T23:59:53.337Z,4.45
